Time;durP1;ratioP1;P1;durP2;ratioP2;P2;SDS_P1;SDS_P2;PMS_P1;PMS_P2;Temp;Humidity;BMP_temperature;BMP_pressure;BME280_temperature;BME280_humidity;BME280_pressure;Samples;Min_cycle;Max_cycle;Signal;HPM_P1;HPM_P2
2022/06/23 00:00:39;;;;;;;5.57;2.08;;;23.10;94.50;;;;;;10054659;28;20024;-61
2022/06/23 00:05:37;;;;;;;5.75;2.00;;;23.10;94.70;;;;;;10042377;28;20045;-59
2022/06/23 00:10:39;;;;;;;4.72;1.90;;;23.10;94.60;;;;;;10054844;28;20065;-61
2022/06/23 00:15:37;;;;;;;9.23;2.70;;;23.10;94.90;;;;;;10055274;28;20076;-61
2022/06/23 00:20:59;;;;;;;3.97;1.70;;;23.00;94.90;;;;;;10054711;28;20393;-61
2022/06/23 00:26:09;;;;;;;4.97;1.95;;;22.90;95.10;;;;;;10049351;28;20142;-61
2022/06/23 00:31:03;;;;;;;7.07;2.17;;;22.80;95.20;;;;;;10050999;28;20041;-60
2022/06/23 00:35:56;;;;;;;4.50;2.13;;;22.80;95.30;;;;;;10052763;28;20037;-59
2022/06/23 00:40:47;;;;;;;6.63;2.05;;;22.70;95.30;;;;;;10054218;28;20104;-60
2022/06/23 00:46:02;;;;;;;5.45;1.80;;;22.60;95.40;;;;;;10054510;28;20034;-60
2022/06/23 00:51:11;;;;;;;5.82;1.70;;;22.50;95.60;;;;;;10051442;28;20507;-60
2022/06/23 00:56:25;;;;;;;4.20;1.83;;;22.50;95.70;;;;;;10053428;28;20041;-60
2022/06/23 01:01:16;;;;;;;8.07;2.17;;;22.40;95.80;;;;;;10050956;28;20083;-60
2022/06/23 01:06:33;;;;;;;4.82;2.28;;;22.40;95.70;;;;;;10052728;28;20367;-60
2022/06/23 01:11:28;;;;;;;5.00;2.10;;;22.30;95.90;;;;;;10052393;28;20034;-59
2022/06/23 01:16:26;;;;;;;;;;;22.30;95.80;;;;;;10052800;28;20238;-60
2022/06/23 01:21:29;;;;;;;6.30;2.58;;;22.20;96.00;;;;;;10052757;28;19917;-59
2022/06/23 01:26:38;;;;;;;4.35;2.25;;;22.10;96.10;;;;;;10052860;28;20029;-60
2022/06/23 01:31:46;;;;;;;6.82;1.73;;;22.00;96.20;;;;;;10042209;28;20041;-61
2022/06/23 01:36:42;;;;;;;5.07;1.90;;;22.10;96.20;;;;;;10046987;28;20057;-66
2022/06/23 01:42:02;;;;;;;10.88;2.40;;;22.00;96.40;;;;;;10052102;28;20754;-66
2022/06/23 01:46:55;;;;;;;6.68;2.65;;;22.00;96.50;;;;;;10051977;28;20286;-60
2022/06/23 01:51:50;;;;;;;4.82;1.98;;;21.90;96.50;;;;;;10051811;28;20029;-68
2022/06/23 01:57:29;;;;;;;4.22;1.88;;;21.90;96.60;;;;;;10051241;28;20446;-60
2022/06/23 02:02:37;;;;;;;4.18;1.92;;;21.80;96.70;;;;;;10024348;28;20029;-60
2022/06/23 02:07:40;;;;;;;5.05;2.25;;;21.80;96.80;;;;;;10044937;28;20121;-61
2022/06/23 02:12:44;;;;;;;3.95;1.77;;;21.70;96.90;;;;;;10051495;28;20037;-60
2022/06/23 02:17:45;;;;;;;6.53;2.42;;;21.60;97.20;;;;;;10050594;28;20557;-60
2022/06/23 02:22:44;;;;;;;3.60;1.85;;;21.60;97.00;;;;;;10051147;28;20150;-63
2022/06/23 02:27:47;;;;;;;5.13;2.45;;;21.50;97.00;;;;;;10046745;28;20044;-63
2022/06/23 02:32:57;;;;;;;6.90;2.13;;;21.50;97.10;;;;;;10048101;28;20199;-60
2022/06/23 02:37:53;;;;;;;4.47;1.55;;;21.40;97.20;;;;;;10038877;28;20045;-61
2022/06/23 02:42:57;;;;;;;3.75;2.17;;;21.40;97.20;;;;;;10051220;28;20029;-60
2022/06/23 02:48:07;;;;;;;6.57;2.65;;;21.50;97.10;;;;;;10050840;28;20571;-60
2022/06/23 02:53:34;;;;;;;7.43;2.45;;;21.40;97.30;;;;;;10050506;28;20044;-63
2022/06/23 02:58:30;;;;;;;5.35;3.38;;;21.40;97.50;;;;;;10046338;28;20123;-59
2022/06/23 03:03:44;;;;;;;8.43;3.05;;;21.50;97.30;;;;;;10056693;28;21483;-59
2022/06/23 03:08:41;;;;;;;9.50;3.92;;;21.50;97.40;;;;;;10049330;28;20037;-59
2022/06/23 03:13:40;;;;;;;4.47;2.60;;;21.50;97.50;;;;;;10049034;28;20037;-59
2022/06/23 03:18:51;;;;;;;5.05;3.50;;;21.40;97.60;;;;;;10052254;28;20041;-61
2022/06/23 03:24:20;;;;;;;5.85;2.95;;;21.50;97.60;;;;;;10057657;28;20521;-62
2022/06/23 03:29:22;;;;;;;6.50;3.13;;;21.30;97.90;;;;;;10052156;28;20033;-69
2022/06/23 03:34:17;;;;;;;8.05;4.15;;;21.30;97.90;;;;;;10056227;28;20025;-60
2022/06/23 03:44:50;;;;;;;9.60;3.97;;;21.30;98.00;;;;;;10048068;28;20451;-62
2022/06/23 03:50:00;;;;;;;5.18;3.38;;;21.30;98.00;;;;;;10047866;28;20026;-60
2022/06/23 03:55:24;;;;;;;6.22;3.35;;;21.30;98.20;;;;;;10051202;28;20034;-61
2022/06/23 04:00:27;;;;;;;6.22;2.78;;;21.30;98.20;;;;;;10054583;28;20025;-61
2022/06/23 04:05:48;;;;;;;8.15;3.80;;;21.30;98.20;;;;;;10055647;28;20035;-62
2022/06/23 04:10:42;;;;;;;12.05;3.78;;;21.40;98.20;;;;;;10054864;28;20388;-61
2022/06/23 04:15:39;;;;;;;8.05;3.92;;;21.40;98.30;;;;;;10054473;28;20308;-60
2022/06/23 04:20:50;;;;;;;6.63;3.25;;;21.40;98.30;;;;;;10054410;28;20021;-60
2022/06/23 04:25:59;;;;;;;6.78;3.67;;;21.30;98.40;;;;;;10053878;28;20060;-63
2022/06/23 04:30:52;;;;;;;7.43;4.28;;;21.40;98.40;;;;;;10054326;28;20054;-61
2022/06/23 04:35:52;;;;;;;6.75;4.10;;;21.30;98.50;;;;;;10053627;28;20504;-69
2022/06/23 04:40:57;;;;;;;9.00;3.72;;;21.40;98.30;;;;;;10054670;28;20150;-67
2022/06/23 04:45:48;;;;;;;10.93;4.65;;;21.40;98.40;;;;;;10055225;28;20029;-63
2022/06/23 04:50:47;;;;;;;8.25;3.65;;;21.60;98.40;;;;;;10054664;28;20067;-68
2022/06/23 04:55:39;;;;;;;7.63;3.10;;;21.60;98.40;;;;;;10053495;28;20063;-67
2022/06/23 05:00:59;;;;;;;7.85;4.10;;;21.70;98.40;;;;;;10056114;28;20017;-66
2022/06/23 05:06:08;;;;;;;7.38;3.22;;;21.70;98.50;;;;;;10042301;28;20393;-68
2022/06/23 05:11:24;;;;;;;7.03;3.85;;;21.80;98.60;;;;;;10052432;28;20420;-64
2022/06/23 05:16:27;;;;;;;11.85;4.07;;;21.70;98.70;;;;;;10052540;28;20064;-68
2022/06/23 05:21:30;;;;;;;6.35;4.35;;;21.80;98.60;;;;;;10053402;28;20033;-65
2022/06/23 05:26:30;;;;;;;9.20;3.70;;;21.80;98.60;;;;;;10051379;28;20075;-62
2022/06/23 05:31:26;;;;;;;8.50;3.83;;;21.80;98.60;;;;;;10052081;28;20065;-64
2022/06/23 05:36:27;;;;;;;8.98;3.80;;;21.90;98.70;;;;;;10051626;28;20061;-62
2022/06/23 05:41:38;;;;;;;10.32;3.88;;;22.10;98.50;;;;;;10052129;28;20018;-63
2022/06/23 05:46:33;;;;;;;9.88;3.38;;;22.20;98.40;;;;;;10043163;28;20030;-60
2022/06/23 05:51:36;;;;;;;4.90;2.33;;;22.30;98.20;;;;;;10051913;28;20071;-59
2022/06/23 05:57:02;;;;;;;7.43;2.88;;;22.40;98.00;;;;;;10045036;28;20067;-61
2022/06/23 06:02:03;;;;;;;4.90;2.30;;;22.50;98.00;;;;;;10049884;28;20030;-66
2022/06/23 06:06:54;;;;;;;8.30;3.88;;;22.60;97.80;;;;;;10033852;28;20037;-68
2022/06/23 06:11:48;;;;;;;6.95;2.80;;;22.80;97.70;;;;;;10040892;28;20022;-66
2022/06/23 06:16:38;;;;;;;8.98;2.70;;;22.80;97.60;;;;;;10052651;28;20037;-63
2022/06/23 06:21:29;;;;;;;6.18;2.40;;;22.90;97.40;;;;;;10053489;28;20013;-63
2022/06/23 06:26:37;;;;;;;8.70;3.53;;;23.10;97.30;;;;;;10030826;28;20030;-68
2022/06/23 06:31:38;;;;;;;7.50;2.25;;;23.30;97.10;;;;;;10041551;28;20148;-62
2022/06/23 06:36:37;;;;;;;6.47;3.45;;;23.20;97.20;;;;;;10052482;28;20108;-63
2022/06/23 06:41:28;;;;;;;7.68;2.38;;;23.20;97.20;;;;;;10055161;28;20037;-62
2022/06/23 06:46:19;;;;;;;4.32;1.95;;;23.20;97.10;;;;;;10059810;28;20047;-62
2022/06/23 06:51:20;;;;;;;5.57;2.00;;;23.50;96.80;;;;;;10057247;28;20860;-61
2022/06/23 06:56:43;;;;;;;7.03;2.22;;;23.60;96.60;;;;;;10060461;28;20671;-63
2022/06/23 07:01:37;;;;;;;5.35;1.95;;;23.70;96.50;;;;;;10055548;28;20082;-65
2022/06/23 07:06:47;;;;;;;6.47;2.15;;;23.80;96.50;;;;;;10056692;28;20434;-61
2022/06/23 07:11:56;;;;;;;4.85;1.60;;;24.00;96.20;;;;;;10056488;28;20033;-69
2022/06/23 07:17:04;;;;;;;5.65;3.60;;;23.80;96.20;;;;;;10055915;28;20033;-68
2022/06/23 07:22:23;;;;;;;4.30;2.75;;;23.90;96.20;;;;;;10055567;28;20107;-67
2022/06/23 07:27:31;;;;;;;7.80;2.08;;;23.80;96.00;;;;;;10056542;28;20610;-61
2022/06/23 07:32:48;;;;;;;4.45;1.63;;;24.00;95.80;;;;;;10055932;28;20049;-61
2022/06/23 07:37:47;;;;;;;7.80;2.75;;;24.30;95.60;;;;;;10058727;28;20037;-60
2022/06/23 07:42:48;;;;;;;4.93;2.03;;;24.60;95.40;;;;;;10057587;28;20026;-65
2022/06/23 07:47:39;;;;;;;3.88;1.55;;;24.60;95.20;;;;;;10053252;28;20040;-62
2022/06/23 07:52:29;;;;;;;3.95;2.20;;;24.60;95.10;;;;;;10055325;28;20117;-64
2022/06/23 07:57:20;;;;;;;5.65;1.52;;;24.80;94.90;;;;;;10055811;28;20170;-66
2022/06/23 08:02:34;;;;;;;4.05;1.85;;;24.90;94.70;;;;;;10047424;28;20029;-67
2022/06/23 08:07:26;;;;;;;5.68;1.58;;;25.00;94.30;;;;;;10050733;28;20036;-67
2022/06/23 08:17:34;;;;;;;6.95;1.90;;;25.00;94.10;;;;;;10056338;28;20083;-67
2022/06/23 08:22:28;;;;;;;7.63;2.00;;;25.00;94.00;;;;;;10054784;28;20083;-64
2022/06/23 08:27:21;;;;;;;6.07;1.73;;;25.00;93.80;;;;;;10057295;28;20530;-64
2022/06/23 08:32:13;;;;;;;3.63;1.65;;;25.10;93.70;;;;;;10054608;28;20578;-63
2022/06/23 08:37:13;;;;;;;5.93;1.80;;;25.20;93.50;;;;;;10035955;28;20538;-64
2022/06/23 08:42:41;;;;;;;6.32;1.55;;;25.20;93.30;;;;;;10052914;28;20028;-65
2022/06/23 08:47:43;;;;;;;8.73;2.55;;;25.30;93.10;;;;;;10052745;28;20041;-65
2022/06/23 08:53:03;;;;;;;12.75;2.47;;;25.60;92.80;;;;;;10053856;28;20013;-62
2022/06/23 08:58:07;;;;;;;4.78;3.10;;;25.60;92.80;;;;;;10052383;28;20037;-61
2022/06/23 09:03:09;;;;;;;7.32;2.00;;;25.80;92.70;;;;;;10052464;28;20022;-62
2022/06/23 09:08:11;;;;;;;8.13;2.70;;;25.80;92.60;;;;;;10054688;28;20013;-65
2022/06/23 09:13:47;;;;;;;9.43;1.83;;;25.80;92.60;;;;;;10053758;28;20143;-63
2022/06/23 09:18:56;;;;;;;4.72;2.20;;;26.00;92.30;;;;;;10034872;28;20041;-63
2022/06/23 09:24:24;;;;;;;7.70;2.90;;;26.00;92.10;;;;;;10051535;28;20200;-62
2022/06/23 09:29:34;;;;;;;4.50;2.15;;;26.10;92.00;;;;;;10052886;28;20074;-68
2022/06/23 09:35:02;;;;;;;5.68;2.17;;;26.20;92.00;;;;;;10049979;28;20257;-67
2022/06/23 09:40:19;;;;;;;6.72;2.90;;;26.50;91.60;;;;;;10041557;28;20030;-68
2022/06/23 09:45:21;;;;;;;6.45;2.00;;;26.70;91.40;;;;;;10049117;28;20099;-64
2022/06/23 09:50:18;;;;;;;7.88;2.40;;;26.40;91.60;;;;;;10051761;28;20078;-67
2022/06/23 09:55:33;;;;;;;9.88;2.85;;;26.40;91.60;;;;;;10051576;28;20780;-67
2022/06/23 10:00:37;;;;;;;8.40;2.60;;;26.70;91.20;;;;;;10051946;28;20087;-68
2022/06/23 10:05:36;;;;;;;7.95;1.85;;;26.80;91.10;;;;;;10049860;28;20061;-65
2022/06/23 10:11:05;;;;;;;6.90;2.00;;;26.90;91.10;;;;;;10053873;28;20044;-65
2022/06/23 10:16:31;;;;;;;7.93;2.38;;;27.10;90.60;;;;;;10057938;28;20236;-64
2022/06/23 10:21:54;;;;;;;7.97;2.60;;;27.10;90.50;;;;;;10054270;28;20022;-66
2022/06/23 10:26:56;;;;;;;8.02;3.70;;;27.30;90.30;;;;;;10053901;28;20030;-66
2022/06/23 10:32:04;;;;;;;5.45;2.47;;;27.50;90.10;;;;;;10058857;28;20516;-68
2022/06/23 10:37:23;;;;;;;6.55;2.42;;;27.60;89.90;;;;;;10058253;28;20045;-68
2022/06/23 10:42:29;;;;;;;9.25;2.80;;;27.70;89.50;;;;;;10040530;28;20137;-68
2022/06/23 10:47:37;;;;;;;9.00;2.83;;;27.60;89.50;;;;;;10058861;28;20025;-69
2022/06/23 10:52:43;;;;;;;7.70;3.22;;;27.80;89.40;;;;;;10059616;28;20029;-70
2022/06/23 10:57:44;;;;;;;7.93;2.60;;;27.90;88.80;;;;;;10059250;28;20111;-67
2022/06/23 11:02:53;;;;;;;5.35;2.20;;;28.00;88.30;;;;;;10058814;28;20030;-67
2022/06/23 11:07:51;;;;;;;6.03;2.40;;;28.20;87.80;;;;;;10059420;28;20014;-67
2022/06/23 11:12:47;;;;;;;10.93;2.72;;;28.40;87.50;;;;;;10061765;28;20081;-67
2022/06/23 11:17:40;;;;;;;8.82;3.10;;;28.70;87.10;;;;;;10060929;28;20075;-62
2022/06/23 11:22:43;;;;;;;9.67;3.07;;;28.80;86.50;;;;;;10059021;28;20460;-66
2022/06/23 11:27:55;;;;;;;7.20;3.08;;;28.90;86.10;;;;;;10058143;28;20093;-67
2022/06/23 11:32:57;;;;;;;7.93;2.40;;;29.10;85.30;;;;;;10056490;28;20042;-67
2022/06/23 11:38:12;;;;;;;11.68;2.67;;;29.20;86.00;;;;;;10056384;28;20087;-66
2022/06/23 11:43:20;;;;;;;7.38;2.28;;;29.20;84.60;;;;;;10056173;28;20048;-68
2022/06/23 11:48:44;;;;;;;7.63;2.63;;;29.20;84.90;;;;;;10048544;28;20032;-65
2022/06/23 11:53:59;;;;;;;10.40;2.33;;;29.00;84.80;;;;;;10055573;28;20075;-65
2022/06/23 11:59:14;;;;;;;11.65;2.30;;;29.30;84.60;;;;;;10056133;28;20117;-67
2022/06/23 12:04:28;;;;;;;5.50;2.42;;;29.30;83.90;;;;;;10049215;28;20048;-65
2022/06/23 12:09:53;;;;;;;7.65;2.28;;;29.80;83.40;;;;;;10050336;28;20020;-67
2022/06/23 12:14:44;;;;;;;8.52;2.88;;;30.70;82.20;;;;;;10054683;28;20280;-63
2022/06/23 12:19:38;;;;;;;7.07;2.30;;;31.30;82.00;;;;;;10055137;28;20732;-64
2022/06/23 12:24:34;;;;;;;6.50;2.25;;;31.10;81.60;;;;;;10057494;28;20052;-65
2022/06/23 12:29:37;;;;;;;10.05;2.88;;;31.10;81.30;;;;;;10054961;28;20041;-64
2022/06/23 12:35:03;;;;;;;11.00;4.20;;;31.30;80.20;;;;;;10053191;28;20053;-67
2022/06/23 12:40:00;;;;;;;9.95;4.13;;;32.10;80.30;;;;;;10025381;28;20045;-70
2022/06/23 12:45:29;;;;;;;7.88;2.60;;;32.30;81.30;;;;;;10053704;28;20037;-67
2022/06/23 12:51:02;;;;;;;6.40;2.42;;;32.70;76.50;;;;;;10049144;28;20041;-66
2022/06/23 12:56:21;;;;;;;9.07;3.07;;;33.40;78.10;;;;;;10049805;28;20132;-65
2022/06/23 13:01:21;;;;;;;10.63;3.50;;;33.60;75.70;;;;;;10043059;28;20033;-66
2022/06/23 13:06:24;;;;;;;9.50;2.53;;;35.20;74.70;;;;;;10052617;28;20466;-64
2022/06/23 13:11:19;;;;;;;11.07;3.65;;;36.50;72.10;;;;;;10052675;28;20022;-63
2022/06/23 13:16:16;;;;;;;9.73;3.50;;;36.80;70.50;;;;;;10034996;28;20488;-69
2022/06/23 13:21:17;;;;;;;6.40;2.33;;;38.40;67.20;;;;;;10052919;28;20029;-69
2022/06/23 13:26:30;;;;;;;11.75;3.50;;;39.10;63.90;;;;;;10052986;28;20061;-69
2022/06/23 13:31:46;;;;;;;10.13;3.25;;;39.80;61.70;;;;;;10060352;28;20136;-71
2022/06/23 13:36:46;;;;;;;6.03;3.05;;;38.90;59.80;;;;;;10047192;28;20120;-65
2022/06/23 13:41:57;;;;;;;9.40;3.07;;;39.00;60.20;;;;;;10052005;28;20025;-67
2022/06/23 13:46:59;;;;;;;7.90;3.53;;;39.60;57.80;;;;;;10051280;28;20041;-66
2022/06/23 13:52:01;;;;;;;7.82;3.33;;;38.60;57.60;;;;;;10052035;28;20550;-67
2022/06/23 13:57:10;;;;;;;4.78;2.55;;;39.60;55.50;;;;;;10051476;28;20037;-71
2022/06/23 14:02:14;;;;;;;5.80;2.22;;;40.80;53.20;;;;;;10056786;28;20503;-73
2022/06/23 14:07:36;;;;;;;7.35;2.55;;;40.30;51.80;;;;;;10045740;28;20484;-70
2022/06/23 14:12:36;;;;;;;9.88;3.05;;;41.00;50.60;;;;;;10048918;28;20033;-68
2022/06/23 14:17:51;;;;;;;6.78;2.78;;;41.20;49.90;;;;;;10050273;28;20033;-69
2022/06/23 14:22:50;;;;;;;6.80;2.15;;;41.40;48.80;;;;;;10050386;28;20026;-69
2022/06/23 14:27:53;;;;;;;5.30;2.03;;;40.50;49.00;;;;;;10051340;28;20049;-69
2022/06/23 14:33:00;;;;;;;6.32;2.25;;;41.10;48.30;;;;;;10053020;28;20061;-67
2022/06/23 14:37:54;;;;;;;8.50;2.38;;;40.80;47.30;;;;;;10061340;28;20033;-68
2022/06/23 14:43:22;;;;;;;5.68;2.85;;;40.40;47.50;;;;;;10058979;28;20292;-69
2022/06/23 14:48:51;;;;;;;5.00;2.03;;;40.40;46.20;;;;;;9993325;28;20065;-70
2022/06/23 14:53:54;;;;;;;5.90;2.00;;;38.30;48.20;;;;;;10041575;28;20504;-68
2022/06/23 14:58:58;;;;;;;8.88;2.35;;;39.60;46.70;;;;;;10057858;28;20043;-70
2022/06/23 15:04:02;;;;;;;6.88;2.33;;;41.10;45.00;;;;;;10057864;28;20022;-69
2022/06/23 15:08:59;;;;;;;4.65;2.80;;;41.90;44.00;;;;;;10056744;28;20030;-72
2022/06/23 15:14:04;;;;;;;7.00;2.03;;;42.10;43.40;;;;;;10057601;28;20021;-69
2022/06/23 15:18:58;;;;;;;6.43;2.28;;;42.20;42.90;;;;;;10057042;28;20025;-67
2022/06/23 15:23:49;;;;;;;3.92;2.15;;;41.90;42.50;;;;;;10057607;28;20072;-68
2022/06/23 15:28:53;;;;;;;5.18;2.47;;;41.10;42.70;;;;;;10058242;28;20507;-69
2022/06/23 15:33:53;;;;;;;7.30;2.25;;;41.70;42.00;;;;;;10059161;28;20045;-67
2022/06/23 15:39:17;;;;;;;5.47;2.50;;;41.00;41.80;;;;;;10056422;28;20033;-69
2022/06/23 15:44:29;;;;;;;4.50;2.17;;;41.50;41.30;;;;;;10058742;28;20188;-70
2022/06/23 15:50:04;;;;;;;6.25;1.90;;;42.40;40.40;;;;;;10066684;28;20025;-70
2022/06/23 15:55:23;;;;;;;4.50;1.77;;;42.50;39.80;;;;;;9980249;28;20056;-72
2022/06/23 16:00:41;;;;;;;7.68;1.98;;;43.00;39.40;;;;;;10055348;28;20030;-71
2022/06/23 16:05:33;;;;;;;7.13;2.55;;;43.30;39.50;;;;;;10051839;28;20021;-71
2022/06/23 16:10:31;;;;;;;3.35;2.20;;;42.70;39.50;;;;;;10054350;28;20052;-73
2022/06/23 16:15:37;;;;;;;7.25;2.40;;;42.50;38.40;;;;;;10057077;28;20053;-71
2022/06/23 16:21:00;;;;;;;3.22;2.13;;;41.00;39.90;;;;;;10058545;28;20056;-75
2022/06/23 16:26:01;;;;;;;8.38;2.20;;;41.10;40.10;;;;;;10036627;28;20514;-71
2022/06/23 16:30:52;;;;;;;;;;;41.30;39.50;;;;;;10036219;28;20723;-72
2022/06/23 16:35:43;;;;;;;6.72;2.60;;;40.50;40.30;;;;;;10054939;28;19917;-72
2022/06/23 16:41:01;;;;;;;5.43;2.35;;;41.70;39.70;;;;;;10056081;28;20546;-72
2022/06/23 16:46:23;;;;;;;5.35;2.72;;;42.80;38.40;;;;;;10035870;28;20433;-68
2022/06/23 16:51:34;;;;;;;6.93;2.40;;;41.20;39.10;;;;;;10049659;28;20455;-73
2022/06/23 16:56:33;;;;;;;3.80;2.27;;;40.10;40.40;;;;;;10055473;28;20606;-70
2022/06/23 17:01:47;;;;;;;5.13;2.15;;;39.70;40.50;;;;;;10058221;28;20096;-69
2022/06/23 17:06:54;;;;;;;10.23;2.28;;;38.80;40.70;;;;;;10055569;28;20022;-71
2022/06/23 17:12:02;;;;;;;6.65;2.20;;;37.30;42.00;;;;;;10052155;28;20087;-71
2022/06/23 17:16:56;;;;;;;5.63;2.33;;;37.20;42.00;;;;;;10054597;28;20120;-68
2022/06/23 17:21:54;;;;;;;4.32;2.33;;;36.20;43.00;;;;;;10050601;28;20075;-69
2022/06/23 17:26:57;;;;;;;8.50;2.75;;;35.50;43.60;;;;;;10051743;28;20027;-68
2022/06/23 17:31:51;;;;;;;;;;;35.10;44.10;;;;;;10051153;28;20404;-68
2022/06/23 17:36:59;;;;;;;5.45;2.20;;;34.90;44.90;;;;;;10051690;28;19917;-70
2022/06/23 17:47:29;;;;;;;5.22;1.58;;;34.60;45.20;;;;;;10052005;28;20566;-66
2022/06/23 17:52:29;;;;;;;4.82;2.75;;;34.40;45.80;;;;;;10052313;28;20037;-71
2022/06/23 17:57:51;;;;;;;7.00;1.95;;;33.90;46.40;;;;;;10051433;28;20068;-70
2022/06/23 18:03:05;;;;;;;6.20;2.63;;;33.70;47.30;;;;;;10050739;28;20037;-70
2022/06/23 18:08:09;;;;;;;4.93;2.45;;;33.30;47.90;;;;;;10064257;28;20208;-72
2022/06/23 18:13:07;;;;;;;6.00;2.00;;;33.10;48.10;;;;;;10057253;28;20354;-68
2022/06/23 18:18:12;;;;;;;8.05;2.80;;;32.90;48.50;;;;;;10051906;28;20041;-68
2022/06/23 18:23:50;;;;;;;5.55;2.70;;;32.90;48.70;;;;;;10052462;28;20084;-70
2022/06/23 18:29:13;;;;;;;5.65;2.30;;;32.70;49.40;;;;;;10003340;28;20038;-69
2022/06/23 18:34:19;;;;;;;5.28;2.15;;;32.70;50.00;;;;;;10041499;28;20515;-76
2022/06/23 18:39:34;;;;;;;6.60;3.08;;;32.70;50.00;;;;;;10059861;28;20041;-73
2022/06/23 18:44:37;;;;;;;10.25;3.30;;;32.50;50.90;;;;;;10058388;28;20565;-72
2022/06/23 18:49:42;;;;;;;6.97;3.00;;;32.30;51.00;;;;;;10058861;28;20543;-73
2022/06/23 18:54:53;;;;;;;5.28;2.20;;;32.30;51.30;;;;;;10059066;28;20110;-68
2022/06/23 19:00:00;;;;;;;8.35;4.55;;;32.10;51.30;;;;;;10057306;28;20026;-69
2022/06/23 19:05:12;;;;;;;6.07;3.00;;;32.10;51.60;;;;;;10057668;28;20036;-71
2022/06/23 19:10:13;;;;;;;7.00;3.47;;;32.00;51.70;;;;;;10058482;28;20044;-70
2022/06/23 19:15:26;;;;;;;8.52;2.67;;;31.90;52.20;;;;;;10062337;28;20325;-65
2022/06/23 19:20:37;;;;;;;4.80;1.83;;;31.10;53.10;;;;;;10057997;28;20446;-72
2022/06/23 19:26:00;;;;;;;5.22;2.30;;;29.30;55.20;;;;;;10060331;28;20059;-68
2022/06/23 19:31:00;;;;;;;7.10;1.85;;;27.90;57.40;;;;;;10058087;28;20100;-65
2022/06/23 19:36:01;;;;;;;6.00;2.42;;;27.00;58.00;;;;;;10056647;28;20037;-65
2022/06/23 19:41:19;;;;;;;6.68;2.33;;;26.40;59.70;;;;;;10057781;28;20554;-64
2022/06/23 19:46:17;;;;;;;6.95;2.92;;;25.30;61.40;;;;;;10017448;28;20037;-64
2022/06/23 19:51:13;;;;;;;12.20;2.75;;;22.70;71.00;;;;;;10057407;28;20496;-66
2022/06/23 19:56:16;;;;;;;4.20;1.67;;;21.70;74.60;;;;;;10038905;28;20120;-67
2022/06/23 20:01:11;;;;;;;7.43;1.73;;;21.90;75.90;;;;;;10056067;28;20017;-66
2022/06/23 20:06:09;;;;;;;4.40;1.80;;;21.60;76.60;;;;;;10057749;28;20040;-67
2022/06/23 20:11:03;;;;;;;2.95;1.25;;;21.90;79.10;;;;;;10057300;28;20048;-67
2022/06/23 20:16:03;;;;;;;4.60;1.48;;;22.00;80.70;;;;;;10050652;28;20037;-68
2022/06/23 20:21:06;;;;;;;5.15;1.70;;;22.00;84.20;;;;;;10057884;28;20029;-68
2022/06/23 20:26:13;;;;;;;6.30;1.80;;;22.40;86.90;;;;;;10057840;28;20060;-67
2022/06/23 20:31:16;;;;;;;8.13;1.65;;;22.20;89.70;;;;;;10056574;28;20045;-65
2022/06/23 20:36:34;;;;;;;4.05;1.80;;;22.20;91.70;;;;;;10056359;28;20037;-63
2022/06/23 20:41:39;;;;;;;3.95;1.20;;;22.30;92.40;;;;;;10047151;28;20021;-65
2022/06/23 20:46:46;;;;;;;4.03;1.75;;;22.60;92.90;;;;;;10055776;28;20144;-64
2022/06/23 20:51:51;;;;;;;4.57;1.30;;;22.80;93.10;;;;;;10049849;28;20439;-66
2022/06/23 20:57:02;;;;;;;5.00;1.90;;;23.10;93.40;;;;;;10047726;28;20144;-65
2022/06/23 21:02:04;;;;;;;5.75;1.73;;;23.40;93.30;;;;;;10053019;28;20504;-68
2022/06/23 21:07:20;;;;;;;4.03;1.58;;;23.70;93.70;;;;;;10050971;28;20037;-66
2022/06/23 21:12:17;;;;;;;3.30;1.50;;;23.90;94.00;;;;;;10033330;28;20048;-66
2022/06/23 21:17:29;;;;;;;4.75;1.60;;;23.90;94.00;;;;;;10053533;28;20037;-67
2022/06/23 21:22:26;;;;;;;4.22;1.20;;;23.70;94.70;;;;;;10052834;28;20049;-66
2022/06/23 21:27:31;;;;;;;2.03;1.30;;;23.50;94.80;;;;;;10052102;28;20047;-66
2022/06/23 21:32:26;;;;;;;2.42;1.23;;;23.50;95.30;;;;;;10052017;28;20041;-66
2022/06/23 21:37:18;;;;;;;;;;;23.50;95.30;;;;;;10052921;28;20039;-66
2022/06/23 21:42:15;;;;;;;3.22;1.30;;;23.50;95.40;;;;;;10052744;28;19916;-65
2022/06/23 21:47:28;;;;;;;2.88;1.33;;;23.50;95.30;;;;;;10052820;28;20291;-67
2022/06/23 21:52:44;;;;;;;3.80;1.58;;;23.30;95.80;;;;;;10052518;28;20022;-66
2022/06/23 21:57:52;;;;;;;3.65;1.33;;;23.40;96.10;;;;;;10047733;28;20042;-66
2022/06/23 22:02:57;;;;;;;5.93;1.60;;;22.90;96.20;;;;;;10052025;28;20036;-67
2022/06/23 22:08:22;;;;;;;3.87;1.37;;;22.70;96.50;;;;;;10057186;28;20017;-67
2022/06/23 22:13:16;;;;;;;2.67;1.50;;;22.80;96.80;;;;;;10043669;28;20366;-67
2022/06/23 22:18:37;;;;;;;2.58;0.85;;;22.60;96.60;;;;;;10059633;28;20060;-66
2022/06/23 22:26:05;;;;;;;4.90;1.30;;;22.60;96.90;;;;;;10059544;28;20041;-66
2022/06/23 22:29:18;;;;;;;5.03;1.23;;;22.80;97.10;;;;;;10060348;28;20030;-66
2022/06/23 22:34:26;;;;;;;3.00;1.33;;;23.00;97.00;;;;;;10057517;28;20507;-67
2022/06/23 22:39:22;;;;;;;1.92;1.10;;;22.90;97.00;;;;;;10058815;28;20659;-66
2022/06/23 22:44:54;;;;;;;3.08;1.33;;;23.00;96.90;;;;;;10058091;28;20025;-66
2022/06/23 22:49:45;;;;;;;3.72;2.08;;;23.10;97.20;;;;;;10050076;28;20028;-67
2022/06/23 22:54:37;;;;;;;2.88;1.60;;;22.90;97.20;;;;;;10051622;28;20037;-66
2022/06/23 22:59:50;;;;;;;3.22;1.33;;;23.10;97.10;;;;;;10058090;28;20045;-66
2022/06/23 23:04:44;;;;;;;3.63;1.30;;;23.20;97.30;;;;;;10020616;28;20465;-66
2022/06/23 23:09:42;;;;;;;4.65;1.63;;;23.10;97.20;;;;;;10058595;28;20403;-66
2022/06/23 23:14:40;;;;;;;2.75;1.05;;;23.00;97.40;;;;;;10057165;28;20036;-65
2022/06/23 23:19:36;;;;;;;2.40;0.93;;;23.00;97.40;;;;;;10055954;28;20065;-67
2022/06/23 23:24:30;;;;;;;2.97;1.77;;;22.80;97.60;;;;;;10056916;28;20029;-65
2022/06/23 23:29:23;;;;;;;3.17;1.35;;;22.80;97.50;;;;;;10057132;28;20642;-67
2022/06/23 23:34:30;;;;;;;5.65;2.05;;;22.50;97.70;;;;;;10056702;28;20098;-66
2022/06/23 23:39:29;;;;;;;2.92;1.20;;;22.50;97.70;;;;;;10056075;28;20034;-65
2022/06/23 23:44:19;;;;;;;1.90;0.93;;;22.50;97.80;;;;;;10054211;28;20022;-65
2022/06/23 23:49:19;;;;;;;3.50;1.52;;;22.70;97.50;;;;;;10052783;28;20503;-65
2022/06/23 23:54:12;;;;;;;3.90;1.25;;;22.70;97.60;;;;;;10052516;28;20587;-67
2022/06/23 23:59:03;;;;;;;2.70;1.23;;;22.60;97.70;;;;;;10056394;28;20065;-66
